Terminal Aerodrome Forecast
Issued by NWS

Home | Current Version | Previous Version | Text Only | Print | Product List | Glossary On
Versions: 1 2 3 4 5 6 7 8 9 10
000
FTUS42 KFFC 271120
TAFPDK
TAF
KPDK 271120Z 2712/2812 VRB03KT P6SM BKN090
     FM280000 00000KT P6SM -RA BKN050 OVC150
     FM280300 00000KT 6SM -RA BR SCT015 OVC030
     FM280600 00000KT 3SM RA BR BKN010 OVC025
     FM280900 13003KT 3SM RA BR OVC005=

USA.gov is the U.S. government's official web portal to all federal, state and local government web resources and services.